sensor_id;sensor_type;location;lat;lon;timestamp;P1;durP1;ratioP1;P2;durP2;ratioP2
20138;SDS011;10230;51.502;10.800;2023-08-12T00:01:26;4.95;;;2.38;;
20138;SDS011;10230;51.502;10.800;2023-08-12T00:03:53;3.35;;;2.65;;
20138;SDS011;10230;51.502;10.800;2023-08-12T00:06:19;5.63;;;2.92;;
20138;SDS011;10230;51.502;10.800;2023-08-12T00:08:45;5.53;;;2.40;;
20138;SDS011;10230;51.502;10.800;2023-08-12T00:11:11;4.78;;;1.98;;
20138;SDS011;10230;51.502;10.800;2023-08-12T00:13:37;3.13;;;2.42;;
20138;SDS011;10230;51.502;10.800;2023-08-12T00:16:05;6.10;;;2.20;;
20138;SDS011;10230;51.502;10.800;2023-08-12T00:18:31;6.00;;;2.60;;
20138;SDS011;10230;51.502;10.800;2023-08-12T00:21:04;3.35;;;2.08;;
20138;SDS011;10230;51.502;10.800;2023-08-12T00:23:30;2.90;;;2.15;;
20138;SDS011;10230;51.502;10.800;2023-08-12T00:25:57;6.38;;;2.97;;
20138;SDS011;10230;51.502;10.800;2023-08-12T00:28:23;3.65;;;2.53;;
20138;SDS011;10230;51.502;10.800;2023-08-12T00:30:49;3.45;;;2.30;;
20138;SDS011;10230;51.502;10.800;2023-08-12T00:33:15;3.47;;;2.20;;
20138;SDS011;10230;51.502;10.800;2023-08-12T00:35:43;6.88;;;2.40;;
20138;SDS011;10230;51.502;10.800;2023-08-12T00:38:09;3.05;;;2.22;;
20138;SDS011;10230;51.502;10.800;2023-08-12T00:40:35;4.72;;;2.72;;
20138;SDS011;10230;51.502;10.800;2023-08-12T00:43:01;5.00;;;2.25;;
20138;SDS011;10230;51.502;10.800;2023-08-12T00:45:28;3.05;;;2.10;;
20138;SDS011;10230;51.502;10.800;2023-08-12T00:47:54;3.80;;;2.40;;
20138;SDS011;10230;51.502;10.800;2023-08-12T00:50:20;4.03;;;2.75;;
20138;SDS011;10230;51.502;10.800;2023-08-12T00:52:47;4.65;;;2.67;;
20138;SDS011;10230;51.502;10.800;2023-08-12T00:55:13;4.75;;;2.28;;
20138;SDS011;10230;51.502;10.800;2023-08-12T00:57:39;3.10;;;2.38;;
20138;SDS011;10230;51.502;10.800;2023-08-12T01:00:06;5.30;;;2.60;;
20138;SDS011;10230;51.502;10.800;2023-08-12T01:02:33;4.68;;;2.50;;
20138;SDS011;10230;51.502;10.800;2023-08-12T01:04:59;6.07;;;2.90;;
20138;SDS011;10230;51.502;10.800;2023-08-12T01:07:25;4.22;;;2.50;;
20138;SDS011;10230;51.502;10.800;2023-08-12T01:09:51;4.55;;;2.55;;
20138;SDS011;10230;51.502;10.800;2023-08-12T01:12:28;5.25;;;2.80;;
20138;SDS011;10230;51.502;10.800;2023-08-12T01:14:56;3.92;;;2.70;;
20138;SDS011;10230;51.502;10.800;2023-08-12T01:17:24;4.00;;;2.75;;
20138;SDS011;10230;51.502;10.800;2023-08-12T01:19:52;13.45;;;5.63;;
20138;SDS011;10230;51.502;10.800;2023-08-12T01:22:19;7.05;;;3.28;;
20138;SDS011;10230;51.502;10.800;2023-08-12T01:24:46;5.53;;;2.70;;
20138;SDS011;10230;51.502;10.800;2023-08-12T01:27:13;3.97;;;2.42;;
20138;SDS011;10230;51.502;10.800;2023-08-12T01:29:39;4.82;;;2.95;;
20138;SDS011;10230;51.502;10.800;2023-08-12T01:32:09;4.57;;;3.10;;
20138;SDS011;10230;51.502;10.800;2023-08-12T01:35:20;3.17;;;2.17;;
20138;SDS011;10230;51.502;10.800;2023-08-12T01:37:27;6.07;;;2.60;;
20138;SDS011;10230;51.502;10.800;2023-08-12T01:39:54;5.75;;;2.78;;
20138;SDS011;10230;51.502;10.800;2023-08-12T01:42:20;6.00;;;2.47;;
20138;SDS011;10230;51.502;10.800;2023-08-12T01:44:46;4.47;;;2.80;;
20138;SDS011;10230;51.502;10.800;2023-08-12T01:47:13;4.38;;;2.47;;
20138;SDS011;10230;51.502;10.800;2023-08-12T01:49:39;4.15;;;2.50;;
20138;SDS011;10230;51.502;10.800;2023-08-12T01:52:05;4.80;;;2.80;;
20138;SDS011;10230;51.502;10.800;2023-08-12T01:54:31;3.42;;;2.55;;
20138;SDS011;10230;51.502;10.800;2023-08-12T01:57:00;3.47;;;2.45;;
20138;SDS011;10230;51.502;10.800;2023-08-12T01:59:27;3.33;;;2.38;;
20138;SDS011;10230;51.502;10.800;2023-08-12T02:01:53;4.85;;;2.60;;
20138;SDS011;10230;51.502;10.800;2023-08-12T02:04:19;2.92;;;2.30;;
20138;SDS011;10230;51.502;10.800;2023-08-12T02:06:45;3.97;;;3.00;;
20138;SDS011;10230;51.502;10.800;2023-08-12T02:09:10;4.35;;;2.60;;
20138;SDS011;10230;51.502;10.800;2023-08-12T02:11:37;5.57;;;2.40;;
20138;SDS011;10230;51.502;10.800;2023-08-12T02:14:03;4.97;;;2.85;;
20138;SDS011;10230;51.502;10.800;2023-08-12T02:16:29;3.83;;;2.53;;
20138;SDS011;10230;51.502;10.800;2023-08-12T02:18:54;4.03;;;2.10;;
20138;SDS011;10230;51.502;10.800;2023-08-12T02:21:20;8.57;;;2.58;;
20138;SDS011;10230;51.502;10.800;2023-08-12T02:23:47;4.88;;;2.95;;
20138;SDS011;10230;51.502;10.800;2023-08-12T02:26:13;4.15;;;2.33;;
20138;SDS011;10230;51.502;10.800;2023-08-12T02:28:39;2.45;;;2.05;;
20138;SDS011;10230;51.502;10.800;2023-08-12T02:31:05;4.93;;;2.05;;
20138;SDS011;10230;51.502;10.800;2023-08-12T02:33:31;3.10;;;2.38;;
20138;SDS011;10230;51.502;10.800;2023-08-12T02:35:57;8.20;;;2.90;;
20138;SDS011;10230;51.502;10.800;2023-08-12T02:38:23;5.20;;;2.47;;
20138;SDS011;10230;51.502;10.800;2023-08-12T02:40:49;2.20;;;2.00;;
20138;SDS011;10230;51.502;10.800;2023-08-12T02:43:16;2.80;;;2.00;;
20138;SDS011;10230;51.502;10.800;2023-08-12T02:45:42;4.28;;;2.30;;
20138;SDS011;10230;51.502;10.800;2023-08-12T02:48:09;5.43;;;2.42;;
20138;SDS011;10230;51.502;10.800;2023-08-12T02:50:35;2.97;;;2.35;;
20138;SDS011;10230;51.502;10.800;2023-08-12T02:53:02;3.28;;;2.40;;
20138;SDS011;10230;51.502;10.800;2023-08-12T02:55:28;4.78;;;3.15;;
20138;SDS011;10230;51.502;10.800;2023-08-12T02:57:54;6.85;;;3.53;;
20138;SDS011;10230;51.502;10.800;2023-08-12T03:00:20;9.40;;;3.53;;
20138;SDS011;10230;51.502;10.800;2023-08-12T03:02:47;5.88;;;3.03;;
20138;SDS011;10230;51.502;10.800;2023-08-12T03:05:13;7.95;;;3.40;;
20138;SDS011;10230;51.502;10.800;2023-08-12T03:07:39;5.80;;;3.17;;
20138;SDS011;10230;51.502;10.800;2023-08-12T03:10:05;7.55;;;3.97;;
20138;SDS011;10230;51.502;10.800;2023-08-12T03:12:31;9.77;;;3.63;;
20138;SDS011;10230;51.502;10.800;2023-08-12T03:14:57;5.25;;;3.50;;
20138;SDS011;10230;51.502;10.800;2023-08-12T03:17:23;7.72;;;3.65;;
20138;SDS011;10230;51.502;10.800;2023-08-12T03:19:49;9.18;;;4.32;;
20138;SDS011;10230;51.502;10.800;2023-08-12T03:22:16;4.82;;;2.97;;
20138;SDS011;10230;51.502;10.800;2023-08-12T03:24:42;5.15;;;3.10;;
20138;SDS011;10230;51.502;10.800;2023-08-12T03:27:08;5.65;;;2.80;;
20138;SDS011;10230;51.502;10.800;2023-08-12T03:29:34;6.80;;;3.63;;
20138;SDS011;10230;51.502;10.800;2023-08-12T03:32:00;4.78;;;2.90;;
20138;SDS011;10230;51.502;10.800;2023-08-12T03:34:27;6.50;;;3.25;;
20138;SDS011;10230;51.502;10.800;2023-08-12T03:36:54;6.60;;;3.70;;
20138;SDS011;10230;51.502;10.800;2023-08-12T03:39:20;4.53;;;3.38;;
20138;SDS011;10230;51.502;10.800;2023-08-12T03:41:46;4.85;;;3.40;;
20138;SDS011;10230;51.502;10.800;2023-08-12T03:44:12;6.53;;;3.70;;
20138;SDS011;10230;51.502;10.800;2023-08-12T03:46:39;4.35;;;3.15;;
20138;SDS011;10230;51.502;10.800;2023-08-12T03:49:05;6.00;;;3.67;;
20138;SDS011;10230;51.502;10.800;2023-08-12T03:51:31;7.63;;;2.95;;
20138;SDS011;10230;51.502;10.800;2023-08-12T03:53:57;6.57;;;3.80;;
20138;SDS011;10230;51.502;10.800;2023-08-12T03:56:23;5.10;;;3.38;;
20138;SDS011;10230;51.502;10.800;2023-08-12T03:58:49;5.97;;;3.67;;
20138;SDS011;10230;51.502;10.800;2023-08-12T04:01:15;4.55;;;3.42;;
20138;SDS011;10230;51.502;10.800;2023-08-12T04:03:41;8.25;;;4.28;;
20138;SDS011;10230;51.502;10.800;2023-08-12T04:06:08;10.07;;;4.40;;
20138;SDS011;10230;51.502;10.800;2023-08-12T04:08:34;7.32;;;4.63;;
20138;SDS011;10230;51.502;10.800;2023-08-12T04:11:00;8.13;;;4.93;;
20138;SDS011;10230;51.502;10.800;2023-08-12T04:13:26;6.15;;;3.75;;
20138;SDS011;10230;51.502;10.800;2023-08-12T04:15:52;5.85;;;3.47;;
20138;SDS011;10230;51.502;10.800;2023-08-12T04:18:19;4.95;;;3.65;;
20138;SDS011;10230;51.502;10.800;2023-08-12T04:20:45;5.57;;;3.78;;
20138;SDS011;10230;51.502;10.800;2023-08-12T04:23:12;3.72;;;2.90;;
20138;SDS011;10230;51.502;10.800;2023-08-12T04:25:38;6.00;;;3.95;;
20138;SDS011;10230;51.502;10.800;2023-08-12T04:28:04;9.23;;;4.70;;
20138;SDS011;10230;51.502;10.800;2023-08-12T04:30:30;6.85;;;4.20;;
20138;SDS011;10230;51.502;10.800;2023-08-12T04:32:56;5.95;;;4.32;;
20138;SDS011;10230;51.502;10.800;2023-08-12T04:35:22;9.13;;;3.60;;
20138;SDS011;10230;51.502;10.800;2023-08-12T04:37:48;14.38;;;5.78;;
20138;SDS011;10230;51.502;10.800;2023-08-12T04:40:14;6.10;;;3.47;;
20138;SDS011;10230;51.502;10.800;2023-08-12T04:42:40;6.28;;;3.50;;
20138;SDS011;10230;51.502;10.800;2023-08-12T04:45:07;6.13;;;3.92;;
20138;SDS011;10230;51.502;10.800;2023-08-12T04:47:33;5.40;;;3.67;;
20138;SDS011;10230;51.502;10.800;2023-08-12T04:49:59;7.18;;;4.80;;
20138;SDS011;10230;51.502;10.800;2023-08-12T04:52:25;7.65;;;3.75;;
20138;SDS011;10230;51.502;10.800;2023-08-12T04:54:54;7.95;;;4.55;;
20138;SDS011;10230;51.502;10.800;2023-08-12T04:57:20;7.28;;;3.97;;
20138;SDS011;10230;51.502;10.800;2023-08-12T04:59:46;6.30;;;3.50;;
20138;SDS011;10230;51.502;10.800;2023-08-12T05:02:12;8.90;;;3.40;;
20138;SDS011;10230;51.502;10.800;2023-08-12T05:04:38;4.13;;;2.53;;
20138;SDS011;10230;51.502;10.800;2023-08-12T05:07:05;3.20;;;2.00;;
20138;SDS011;10230;51.502;10.800;2023-08-12T05:09:31;2.53;;;1.52;;
20138;SDS011;10230;51.502;10.800;2023-08-12T05:11:57;3.53;;;2.45;;
20138;SDS011;10230;51.502;10.800;2023-08-12T05:14:23;4.65;;;1.90;;
20138;SDS011;10230;51.502;10.800;2023-08-12T05:16:49;3.55;;;1.70;;
20138;SDS011;10230;51.502;10.800;2023-08-12T05:19:15;1.70;;;1.50;;
20138;SDS011;10230;51.502;10.800;2023-08-12T05:21:41;2.20;;;1.90;;
20138;SDS011;10230;51.502;10.800;2023-08-12T05:24:07;4.50;;;2.60;;
20138;SDS011;10230;51.502;10.800;2023-08-12T05:26:33;3.13;;;2.00;;
20138;SDS011;10230;51.502;10.800;2023-08-12T05:28:59;4.32;;;2.00;;
20138;SDS011;10230;51.502;10.800;2023-08-12T05:31:25;4.53;;;1.95;;
20138;SDS011;10230;51.502;10.800;2023-08-12T05:33:52;4.70;;;2.03;;
20138;SDS011;10230;51.502;10.800;2023-08-12T05:36:18;3.83;;;1.60;;
20138;SDS011;10230;51.502;10.800;2023-08-12T05:38:44;3.58;;;2.13;;
20138;SDS011;10230;51.502;10.800;2023-08-12T05:41:10;3.20;;;1.65;;
20138;SDS011;10230;51.502;10.800;2023-08-12T05:43:36;3.60;;;1.80;;
20138;SDS011;10230;51.502;10.800;2023-08-12T05:46:02;3.58;;;1.95;;
20138;SDS011;10230;51.502;10.800;2023-08-12T05:48:28;5.90;;;2.40;;
20138;SDS011;10230;51.502;10.800;2023-08-12T05:50:54;2.72;;;1.98;;
20138;SDS011;10230;51.502;10.800;2023-08-12T05:53:21;6.18;;;2.72;;
20138;SDS011;10230;51.502;10.800;2023-08-12T05:55:48;2.38;;;2.08;;
20138;SDS011;10230;51.502;10.800;2023-08-12T05:58:14;4.57;;;2.38;;
20138;SDS011;10230;51.502;10.800;2023-08-12T06:00:39;5.63;;;2.92;;
20138;SDS011;10230;51.502;10.800;2023-08-12T06:03:10;3.03;;;2.20;;
20138;SDS011;10230;51.502;10.800;2023-08-12T06:05:36;5.63;;;2.88;;
20138;SDS011;10230;51.502;10.800;2023-08-12T06:08:02;3.72;;;2.70;;
20138;SDS011;10230;51.502;10.800;2023-08-12T06:10:28;4.53;;;2.58;;
20138;SDS011;10230;51.502;10.800;2023-08-12T06:12:54;3.78;;;2.45;;
20138;SDS011;10230;51.502;10.800;2023-08-12T06:15:20;4.30;;;2.55;;
20138;SDS011;10230;51.502;10.800;2023-08-12T06:17:46;2.47;;;2.20;;
20138;SDS011;10230;51.502;10.800;2023-08-12T06:20:12;4.60;;;2.80;;
20138;SDS011;10230;51.502;10.800;2023-08-12T06:22:38;4.28;;;2.40;;
20138;SDS011;10230;51.502;10.800;2023-08-12T06:25:04;5.43;;;3.38;;
20138;SDS011;10230;51.502;10.800;2023-08-12T06:27:30;7.90;;;3.88;;
20138;SDS011;10230;51.502;10.800;2023-08-12T06:29:56;4.57;;;3.80;;
20138;SDS011;10230;51.502;10.800;2023-08-12T06:32:22;6.65;;;3.40;;
20138;SDS011;10230;51.502;10.800;2023-08-12T06:34:48;6.45;;;4.10;;
20138;SDS011;10230;51.502;10.800;2023-08-12T06:37:14;9.05;;;6.43;;
20138;SDS011;10230;51.502;10.800;2023-08-12T06:39:40;6.97;;;5.00;;
20138;SDS011;10230;51.502;10.800;2023-08-12T06:42:06;6.95;;;4.13;;
20138;SDS011;10230;51.502;10.800;2023-08-12T06:44:32;9.75;;;5.32;;
20138;SDS011;10230;51.502;10.800;2023-08-12T06:46:58;6.40;;;4.22;;
20138;SDS011;10230;51.502;10.800;2023-08-12T06:49:24;6.05;;;4.30;;
20138;SDS011;10230;51.502;10.800;2023-08-12T06:51:50;9.30;;;4.95;;
20138;SDS011;10230;51.502;10.800;2023-08-12T06:54:16;6.40;;;3.95;;
20138;SDS011;10230;51.502;10.800;2023-08-12T06:56:43;7.93;;;4.10;;
20138;SDS011;10230;51.502;10.800;2023-08-12T06:59:09;7.00;;;3.83;;
20138;SDS011;10230;51.502;10.800;2023-08-12T07:01:36;5.80;;;3.40;;
20138;SDS011;10230;51.502;10.800;2023-08-12T07:04:02;6.82;;;3.55;;
20138;SDS011;10230;51.502;10.800;2023-08-12T07:06:28;4.50;;;3.40;;
20138;SDS011;10230;51.502;10.800;2023-08-12T07:08:54;4.45;;;2.90;;
20138;SDS011;10230;51.502;10.800;2023-08-12T07:11:21;5.68;;;3.13;;
20138;SDS011;10230;51.502;10.800;2023-08-12T07:13:47;3.13;;;2.55;;
20138;SDS011;10230;51.502;10.800;2023-08-12T07:16:13;4.63;;;3.10;;
20138;SDS011;10230;51.502;10.800;2023-08-12T07:18:39;5.80;;;2.92;;
20138;SDS011;10230;51.502;10.800;2023-08-12T07:21:05;5.10;;;3.28;;
20138;SDS011;10230;51.502;10.800;2023-08-12T07:23:31;5.95;;;3.25;;
20138;SDS011;10230;51.502;10.800;2023-08-12T07:25:57;5.57;;;3.22;;
20138;SDS011;10230;51.502;10.800;2023-08-12T07:28:23;4.10;;;3.10;;
20138;SDS011;10230;51.502;10.800;2023-08-12T07:30:49;5.35;;;2.65;;
20138;SDS011;10230;51.502;10.800;2023-08-12T07:33:15;3.70;;;3.33;;
20138;SDS011;10230;51.502;10.800;2023-08-12T07:35:41;5.00;;;3.60;;
20138;SDS011;10230;51.502;10.800;2023-08-12T07:38:07;3.90;;;2.95;;
20138;SDS011;10230;51.502;10.800;2023-08-12T07:40:33;4.75;;;3.20;;
20138;SDS011;10230;51.502;10.800;2023-08-12T07:42:59;5.20;;;2.88;;
20138;SDS011;10230;51.502;10.800;2023-08-12T07:45:25;4.03;;;2.97;;
20138;SDS011;10230;51.502;10.800;2023-08-12T07:47:51;4.97;;;3.22;;
20138;SDS011;10230;51.502;10.800;2023-08-12T07:50:17;3.60;;;2.83;;
20138;SDS011;10230;51.502;10.800;2023-08-12T07:52:43;7.22;;;3.30;;
20138;SDS011;10230;51.502;10.800;2023-08-12T07:55:09;5.38;;;3.45;;
20138;SDS011;10230;51.502;10.800;2023-08-12T07:57:35;5.22;;;3.65;;
20138;SDS011;10230;51.502;10.800;2023-08-12T08:00:01;6.43;;;3.45;;
20138;SDS011;10230;51.502;10.800;2023-08-12T08:02:28;8.00;;;3.97;;
20138;SDS011;10230;51.502;10.800;2023-08-12T08:04:54;4.95;;;3.20;;
20138;SDS011;10230;51.502;10.800;2023-08-12T08:07:20;7.13;;;4.07;;
20138;SDS011;10230;51.502;10.800;2023-08-12T08:09:46;5.07;;;3.63;;
20138;SDS011;10230;51.502;10.800;2023-08-12T08:12:12;7.63;;;4.13;;
20138;SDS011;10230;51.502;10.800;2023-08-12T08:14:38;6.72;;;4.60;;
20138;SDS011;10230;51.502;10.800;2023-08-12T08:17:04;8.27;;;4.65;;
20138;SDS011;10230;51.502;10.800;2023-08-12T08:19:30;9.07;;;4.45;;
20138;SDS011;10230;51.502;10.800;2023-08-12T08:21:57;8.82;;;5.28;;
20138;SDS011;10230;51.502;10.800;2023-08-12T08:24:23;9.18;;;4.38;;
20138;SDS011;10230;51.502;10.800;2023-08-12T08:26:49;9.02;;;4.53;;
20138;SDS011;10230;51.502;10.800;2023-08-12T08:29:15;8.48;;;4.72;;
20138;SDS011;10230;51.502;10.800;2023-08-12T08:31:41;6.18;;;3.92;;
20138;SDS011;10230;51.502;10.800;2023-08-12T08:34:07;4.85;;;3.67;;
20138;SDS011;10230;51.502;10.800;2023-08-12T08:36:34;6.97;;;3.67;;
20138;SDS011;10230;51.502;10.800;2023-08-12T08:39:01;6.25;;;3.13;;
20138;SDS011;10230;51.502;10.800;2023-08-12T08:41:28;5.82;;;3.80;;
20138;SDS011;10230;51.502;10.800;2023-08-12T08:43:56;6.95;;;3.95;;
20138;SDS011;10230;51.502;10.800;2023-08-12T08:46:24;6.38;;;3.20;;
20138;SDS011;10230;51.502;10.800;2023-08-12T08:48:50;6.30;;;3.78;;
20138;SDS011;10230;51.502;10.800;2023-08-12T08:51:17;6.53;;;5.03;;
20138;SDS011;10230;51.502;10.800;2023-08-12T08:53:43;5.30;;;3.25;;
20138;SDS011;10230;51.502;10.800;2023-08-12T08:56:09;5.35;;;3.30;;
20138;SDS011;10230;51.502;10.800;2023-08-12T08:58:37;5.53;;;2.65;;
20138;SDS011;10230;51.502;10.800;2023-08-12T09:01:03;5.97;;;3.03;;
20138;SDS011;10230;51.502;10.800;2023-08-12T09:03:31;4.47;;;2.83;;
20138;SDS011;10230;51.502;10.800;2023-08-12T09:05:57;7.03;;;3.45;;
20138;SDS011;10230;51.502;10.800;2023-08-12T09:08:23;3.30;;;2.80;;
20138;SDS011;10230;51.502;10.800;2023-08-12T09:10:50;4.65;;;2.40;;
20138;SDS011;10230;51.502;10.800;2023-08-12T09:13:16;3.70;;;2.20;;
20138;SDS011;10230;51.502;10.800;2023-08-12T09:15:43;2.17;;;1.98;;
20138;SDS011;10230;51.502;10.800;2023-08-12T09:18:09;2.92;;;2.40;;
20138;SDS011;10230;51.502;10.800;2023-08-12T09:20:35;4.35;;;2.25;;
20138;SDS011;10230;51.502;10.800;2023-08-12T09:23:02;4.10;;;2.45;;
20138;SDS011;10230;51.502;10.800;2023-08-12T09:25:29;2.40;;;2.03;;
20138;SDS011;10230;51.502;10.800;2023-08-12T09:27:55;3.75;;;1.88;;
20138;SDS011;10230;51.502;10.800;2023-08-12T09:30:24;4.65;;;1.92;;
20138;SDS011;10230;51.502;10.800;2023-08-12T09:32:59;3.25;;;2.20;;
20138;SDS011;10230;51.502;10.800;2023-08-12T09:35:31;2.92;;;1.98;;
20138;SDS011;10230;51.502;10.800;2023-08-12T09:37:57;2.10;;;1.65;;
20138;SDS011;10230;51.502;10.800;2023-08-12T09:40:24;1.92;;;1.50;;
20138;SDS011;10230;51.502;10.800;2023-08-12T09:42:50;5.55;;;2.78;;
20138;SDS011;10230;51.502;10.800;2023-08-12T09:45:16;4.60;;;3.20;;
20138;SDS011;10230;51.502;10.800;2023-08-12T09:47:45;4.80;;;3.40;;
20138;SDS011;10230;51.502;10.800;2023-08-12T09:50:11;4.70;;;2.97;;
20138;SDS011;10230;51.502;10.800;2023-08-12T09:52:39;3.38;;;2.10;;
20138;SDS011;10230;51.502;10.800;2023-08-12T09:55:05;6.90;;;3.47;;
20138;SDS011;10230;51.502;10.800;2023-08-12T09:57:31;6.53;;;4.13;;
20138;SDS011;10230;51.502;10.800;2023-08-12T09:59:59;3.30;;;2.92;;
20138;SDS011;10230;51.502;10.800;2023-08-12T10:02:26;4.90;;;3.90;;
20138;SDS011;10230;51.502;10.800;2023-08-12T10:04:53;2.78;;;2.58;;
20138;SDS011;10230;51.502;10.800;2023-08-12T10:07:21;4.10;;;2.63;;
20138;SDS011;10230;51.502;10.800;2023-08-12T10:09:48;2.08;;;1.80;;
20138;SDS011;10230;51.502;10.800;2023-08-12T10:12:14;2.45;;;2.00;;
20138;SDS011;10230;51.502;10.800;2023-08-12T10:14:41;3.85;;;2.30;;
20138;SDS011;10230;51.502;10.800;2023-08-12T10:17:08;2.08;;;1.90;;
20138;SDS011;10230;51.502;10.800;2023-08-12T10:19:34;3.63;;;2.28;;
20138;SDS011;10230;51.502;10.800;2023-08-12T10:22:02;2.13;;;1.90;;
20138;SDS011;10230;51.502;10.800;2023-08-12T10:24:28;1.92;;;1.83;;
20138;SDS011;10230;51.502;10.800;2023-08-12T10:26:55;3.25;;;2.10;;
20138;SDS011;10230;51.502;10.800;2023-08-12T10:29:24;2.65;;;1.80;;
20138;SDS011;10230;51.502;10.800;2023-08-12T10:31:50;1.65;;;1.55;;
20138;SDS011;10230;51.502;10.800;2023-08-12T10:34:20;5.72;;;2.10;;
20138;SDS011;10230;51.502;10.800;2023-08-12T10:36:46;2.92;;;2.10;;
20138;SDS011;10230;51.502;10.800;2023-08-12T10:39:13;3.33;;;2.08;;
20138;SDS011;10230;51.502;10.800;2023-08-12T10:41:39;2.03;;;1.83;;
20138;SDS011;10230;51.502;10.800;2023-08-12T10:44:17;3.13;;;1.80;;
20138;SDS011;10230;51.502;10.800;2023-08-12T10:46:52;1.90;;;1.50;;
20138;SDS011;10230;51.502;10.800;2023-08-12T10:49:19;1.83;;;1.70;;
20138;SDS011;10230;51.502;10.800;2023-08-12T10:51:47;1.85;;;1.75;;
20138;SDS011;10230;51.502;10.800;2023-08-12T11:04:56;1.88;;;1.77;;
20138;SDS011;10230;51.502;10.800;2023-08-12T11:09:59;2.92;;;1.58;;
20138;SDS011;10230;51.502;10.800;2023-08-12T11:12:32;1.50;;;1.40;;
20138;SDS011;10230;51.502;10.800;2023-08-12T11:14:59;1.80;;;1.55;;
20138;SDS011;10230;51.502;10.800;2023-08-12T11:17:33;2.03;;;1.65;;
20138;SDS011;10230;51.502;10.800;2023-08-12T11:19:59;2.13;;;1.50;;
20138;SDS011;10230;51.502;10.800;2023-08-12T11:22:26;7.55;;;1.80;;
20138;SDS011;10230;51.502;10.800;2023-08-12T11:24:52;1.60;;;1.50;;
20138;SDS011;10230;51.502;10.800;2023-08-12T11:27:19;2.58;;;1.75;;
20138;SDS011;10230;51.502;10.800;2023-08-12T11:29:45;2.55;;;1.85;;
20138;SDS011;10230;51.502;10.800;2023-08-12T11:32:11;1.80;;;1.70;;
20138;SDS011;10230;51.502;10.800;2023-08-12T11:34:37;3.08;;;1.95;;
20138;SDS011;10230;51.502;10.800;2023-08-12T11:37:03;2.22;;;1.88;;
20138;SDS011;10230;51.502;10.800;2023-08-12T11:39:29;2.67;;;1.75;;
20138;SDS011;10230;51.502;10.800;2023-08-12T11:41:55;3.63;;;1.95;;
20138;SDS011;10230;51.502;10.800;2023-08-12T11:44:22;3.45;;;1.90;;
20138;SDS011;10230;51.502;10.800;2023-08-12T11:46:51;1.48;;;1.33;;
20138;SDS011;10230;51.502;10.800;2023-08-12T11:49:17;1.98;;;1.63;;
20138;SDS011;10230;51.502;10.800;2023-08-12T11:51:43;2.08;;;1.55;;
20138;SDS011;10230;51.502;10.800;2023-08-12T11:54:11;2.15;;;1.58;;
20138;SDS011;10230;51.502;10.800;2023-08-12T11:56:37;3.38;;;1.30;;
20138;SDS011;10230;51.502;10.800;2023-08-12T11:59:03;2.83;;;1.60;;
20138;SDS011;10230;51.502;10.800;2023-08-12T12:01:30;1.70;;;1.50;;
20138;SDS011;10230;51.502;10.800;2023-08-12T12:03:59;1.40;;;1.30;;
20138;SDS011;10230;51.502;10.800;2023-08-12T12:06:32;1.65;;;1.48;;
20138;SDS011;10230;51.502;10.800;2023-08-12T12:09:06;2.38;;;1.27;;
20138;SDS011;10230;51.502;10.800;2023-08-12T12:11:34;1.83;;;1.45;;
20138;SDS011;10230;51.502;10.800;2023-08-12T12:14:05;1.77;;;1.67;;
20138;SDS011;10230;51.502;10.800;2023-08-12T12:19:04;1.67;;;1.58;;
20138;SDS011;10230;51.502;10.800;2023-08-12T12:21:38;1.60;;;1.50;;
20138;SDS011;10230;51.502;10.800;2023-08-12T12:24:04;1.33;;;1.23;;
20138;SDS011;10230;51.502;10.800;2023-08-12T12:26:31;2.45;;;1.20;;
20138;SDS011;10230;51.502;10.800;2023-08-12T12:28:57;1.77;;;1.33;;
20138;SDS011;10230;51.502;10.800;2023-08-12T12:31:23;3.08;;;1.60;;
20138;SDS011;10230;51.502;10.800;2023-08-12T12:33:49;1.20;;;1.10;;
20138;SDS011;10230;51.502;10.800;2023-08-12T12:36:15;2.08;;;1.60;;
20138;SDS011;10230;51.502;10.800;2023-08-12T12:38:41;1.40;;;1.30;;
20138;SDS011;10230;51.502;10.800;2023-08-12T12:41:07;1.67;;;1.25;;
20138;SDS011;10230;51.502;10.800;2023-08-12T12:43:34;1.90;;;1.70;;
20138;SDS011;10230;51.502;10.800;2023-08-12T12:46:00;1.50;;;1.40;;
20138;SDS011;10230;51.502;10.800;2023-08-12T12:48:26;1.95;;;1.48;;
20138;SDS011;10230;51.502;10.800;2023-08-12T12:50:52;1.63;;;1.52;;
20138;SDS011;10230;51.502;10.800;2023-08-12T12:53:18;1.73;;;1.50;;
20138;SDS011;10230;51.502;10.800;2023-08-12T12:55:44;1.15;;;1.05;;
20138;SDS011;10230;51.502;10.800;2023-08-12T12:58:10;2.25;;;1.33;;
20138;SDS011;10230;51.502;10.800;2023-08-12T13:00:36;1.98;;;1.20;;
20138;SDS011;10230;51.502;10.800;2023-08-12T13:03:02;3.08;;;1.65;;
20138;SDS011;10230;51.502;10.800;2023-08-12T13:05:28;1.65;;;1.38;;
20138;SDS011;10230;51.502;10.800;2023-08-12T13:07:54;1.38;;;1.27;;
20138;SDS011;10230;51.502;10.800;2023-08-12T13:10:20;1.17;;;1.10;;
20138;SDS011;10230;51.502;10.800;2023-08-12T13:12:46;1.67;;;1.35;;
20138;SDS011;10230;51.502;10.800;2023-08-12T13:15:12;2.67;;;1.33;;
20138;SDS011;10230;51.502;10.800;2023-08-12T13:17:38;1.38;;;1.00;;
20138;SDS011;10230;51.502;10.800;2023-08-12T13:20:04;3.42;;;1.00;;
20138;SDS011;10230;51.502;10.800;2023-08-12T13:22:30;1.50;;;1.15;;
20138;SDS011;10230;51.502;10.800;2023-08-12T13:24:56;1.45;;;1.10;;
20138;SDS011;10230;51.502;10.800;2023-08-12T13:27:22;1.65;;;1.10;;
20138;SDS011;10230;51.502;10.800;2023-08-12T13:29:48;1.13;;;0.95;;
20138;SDS011;10230;51.502;10.800;2023-08-12T13:32:14;1.83;;;1.38;;
20138;SDS011;10230;51.502;10.800;2023-08-12T13:34:41;1.65;;;0.70;;
20138;SDS011;10230;51.502;10.800;2023-08-12T13:37:08;1.67;;;0.98;;
20138;SDS011;10230;51.502;10.800;2023-08-12T13:39:35;1.25;;;1.15;;
20138;SDS011;10230;51.502;10.800;2023-08-12T13:42:01;2.15;;;1.10;;
20138;SDS011;10230;51.502;10.800;2023-08-12T13:44:27;1.85;;;1.05;;
20138;SDS011;10230;51.502;10.800;2023-08-12T13:46:53;1.52;;;1.20;;
20138;SDS011;10230;51.502;10.800;2023-08-12T13:49:19;1.58;;;1.08;;
20138;SDS011;10230;51.502;10.800;2023-08-12T13:51:45;2.58;;;0.98;;
20138;SDS011;10230;51.502;10.800;2023-08-12T13:54:11;0.98;;;0.90;;
20138;SDS011;10230;51.502;10.800;2023-08-12T13:56:37;1.98;;;1.30;;
20138;SDS011;10230;51.502;10.800;2023-08-12T13:59:03;1.30;;;0.93;;
20138;SDS011;10230;51.502;10.800;2023-08-12T14:01:29;1.48;;;1.33;;
20138;SDS011;10230;51.502;10.800;2023-08-12T14:03:55;1.95;;;1.30;;
20138;SDS011;10230;51.502;10.800;2023-08-12T14:06:21;1.30;;;1.20;;
20138;SDS011;10230;51.502;10.800;2023-08-12T14:08:47;2.95;;;1.33;;
20138;SDS011;10230;51.502;10.800;2023-08-12T14:11:13;2.85;;;1.30;;
20138;SDS011;10230;51.502;10.800;2023-08-12T14:13:39;1.83;;;1.30;;
20138;SDS011;10230;51.502;10.800;2023-08-12T14:16:05;2.63;;;1.10;;
20138;SDS011;10230;51.502;10.800;2023-08-12T14:18:31;1.20;;;1.10;;
20138;SDS011;10230;51.502;10.800;2023-08-12T14:20:57;1.08;;;0.98;;
20138;SDS011;10230;51.502;10.800;2023-08-12T14:23:23;1.83;;;1.38;;
20138;SDS011;10230;51.502;10.800;2023-08-12T14:25:49;1.65;;;1.30;;
20138;SDS011;10230;51.502;10.800;2023-08-12T14:28:15;1.13;;;1.02;;
20138;SDS011;10230;51.502;10.800;2023-08-12T14:30:41;1.45;;;1.35;;
20138;SDS011;10230;51.502;10.800;2023-08-12T14:33:07;1.98;;;1.33;;
20138;SDS011;10230;51.502;10.800;2023-08-12T14:35:34;1.48;;;1.20;;
20138;SDS011;10230;51.502;10.800;2023-08-12T14:38:00;1.40;;;1.15;;
20138;SDS011;10230;51.502;10.800;2023-08-12T14:40:26;1.40;;;1.30;;
20138;SDS011;10230;51.502;10.800;2023-08-12T14:42:53;1.45;;;1.10;;
20138;SDS011;10230;51.502;10.800;2023-08-12T14:45:19;1.10;;;1.00;;